Weather at El Paso International Airport

Public forecast

Using degrees Fahrenheit for public forecast. Weather courtesy of forecast.io.

Current aviation weather report (METAR) for El Paso International Airport

2022/12/10 02:51 (retrieved 16 minutes ago)

KELP 100251Z 11004KT 10SM SCT150 BKN200 BKN250 12/03 A3007 RMK AO2 SLP149 VIRGA OHD-E-SW T01220033 53010

Closest aviation forecast (TAF) to El Paso International Airport

Closest forecast is Biggs Army Air Field (Fort Bliss), 2.5 nm (4.7 km) N.

2022/12/09 22:55 (retrieved 4 hours ago)

TAF KBIF 092200Z 0922/1104 VRB06KT 9999 SCT150 BKN200 QNH3000INS BECMG 1016/1017 VRB06KT 9999 SCT200 QNH3000INS TX19/0921Z TN05/1014Z